ADDS METAR Data INFO
IDs: Format: Raw Decoded Include TAF

Data at: 1747 UTC 15 Dec 2017

PAVD 151656Z 00000KT 8SM SCT012 BKN021 BKN033 02/01 A2979 RMK AO2 SLP114 1651Z WEA: NONE TWR WND 00000KT T00170011 $
PAVD 151556Z COR 10003KT 8SM SCT010 BKN021 BKN035 02/01 A2981 RMK AO2 SLPNO 1551Z WEA: NONE TWR WND 00000KT T00170011 $
PAVD 151513Z 00000KT 8SM SCT009 BKN020 BKN030 01/01 A2979 RMK AO2 1510Z WEA: NONE TWR WND 08003KT $
PAVD 151505Z AUTO 00000KT 10SM FEW010 BKN018 BKN031 02/01 A2979 RMK AO2 PWINO FZRANO $
PAVD 151456Z AUTO 00000KT 10SM FEW018 BKN031 BKN070 02/01 A2978 RMK AO2 SLP109 6//// T00170011 51020 PWINO FZRANO $
PAVD 151407Z AUTO 24005KT 10SM FEW016 BKN033 OVC060 02/02 A2977 RMK AO2 PWINO FZRANO $
PAVD 151356Z AUTO 28006KT 9SM FEW008 BKN017 OVC035 02/01 A2977 RMK AO2 SLP105 P0001 T00170011 PWINO FZRANO $
PAVD 151347Z AUTO 26005KT 9SM FEW008 BKN017 OVC043 02/01 A2977 RMK AO2 P0001 PWINO FZRANO $
PAVD 151332Z AUTO 00000KT 7SM SCT003 BKN008 OVC043 02/01 A2976 RMK AO2 P0001 PWINO FZRANO $
PAVD 151327Z AUTO 23004KT 9SM SCT003 BKN033 OVC043 02/01 A2976 RMK AO2 P0001 PWINO FZRANO $
PAVD 151308Z AUTO 00000KT 7SM BKN003 OVC020 02/01 A2975 RMK AO2 P0001 PWINO FZRANO $
PAVD 151256Z AUTO 00000KT 10SM FEW005 OVC020 01/01 A2975 RMK AO2 SLP098 T00110006 PWINO FZRANO $
PAVD 151156Z AUTO 00000KT 10SM BKN020 BKN036 OVC055 01/01 A2972 RMK AO2 SLP089 6//// 7//// T00110006 10033 20011 51024 PWINO FZRANO $
PAVD 151056Z AUTO 08003KT 10SM FEW045 OVC055 01/01 A2971 RMK AO2 SLP084 T00110006 PWINO FZRANO $
PAVD 150956Z AUTO 00000KT 10SM OVC038 02/01 A2968 RMK AO2 SLP074 T00220011 PWINO FZRANO $
PAVD 150856Z AUTO 03003KT 10SM BKN060 OVC080 02/01 A2965 RMK AO2 SLP065 6//// T00170006 400440006 53033 PWINO FZRANO $
PAVD 150756Z AUTO 00000KT 10SM SCT028 BKN065 OVC090 02/01 A2962 RMK AO2 SLP054 0651Z WEA: -RA TWR WND 18005KT T00170011 PWINO FZRANO $
PAVD 150656Z 17003KT 10SM FEW025 FEW045 OVC065 03/02 A2959 RMK AO2 SLP043 0651Z WEA: -RA TWR WND 18005KT T00280017 $
PAVD 150556Z 22003KT 10SM FEW050 OVC070 03/01 A2955 RMK AO2 SLP032 0551Z WEA: -RA RAB10 PRESRR TWR WND 00000KT 6//// T00330011 10044 20022 53059 $
PAVD 150456Z 36003KT 10SM SCT050 OVC065 04/01 A2950 RMK AO2 SLP013 0451Z WEA: NONE RAE14 PRESRR TWR WND 31004KT T00390011 $
PAVD 150356Z 00000KT 10SM SCT045 OVC060 03/02 A2943 RMK AO2 SLP989 0351Z WEA: -RA TWR WND 00000KT T00330022 $
PAVD 150256Z 00000KT 10SM FEW015 SCT030 OVC055 03/02 A2938 RMK AO2 SLP973 0251Z WEA: -RA RAB15 TWR WND 06004KT T00330022 53024 $
PAVD 150156Z 10SM FEW010 SCT025 OVC055 03/02 A2935 RMK AO2 SLP964 0151Z WEA: NONE RAE30 TWR WND 05004KT T00280017 $
PAVD 150056Z 09006KT 10SM FEW015 BKN040 OVC065 04/02 A2933 RMK AO2 SLP956 0051Z WEA: -RA INTMT -RA TWR WND 13005KT T00390022 $
PAVD 142356Z 04004KT 10SM FEW001 BKN040 OVC065 04/03 A2931 RMK AO2 SLP949 2351Z WEA: -RA RAB30 TWR WND 34005KT P0001 6//// T00440033 10044 20006 $
PAVD 142256Z 04007KT 10SM FEW001 BKN040 OVC065 04/03 A2931 RMK AO2 SLP949 2251Z WEA: NONE RAE15 TWR WND 35006KT T00390033 $
PAVD 142156Z COR 36006KT 10SM FEW001 BKN040 OVC065 02/01 A2930 RMK AO2 SLPNO 2151Z WEA: -RA INTMT -RA TWR WND 00000KT T00170011 $
PAVD 142102Z 26004KT 10SM FEW000 BKN040 OVC060 01/01 A2931 RMK AO2 2100Z WEA: -RA BCFG BCFG ON RWY 24 BCFG FEW000 TWR WND 2005KT $
PAVD 142056Z 27004KT 1/2SM BKN000 BKN040 OVC060 01/01 A2931 RMK AO2 SLP950 2051Z WEA: -RA FG FG BKN000 TWR WND 20005KT 6//// T00110006 56023 $
PAVD 142037Z 24004KT 1 3/4SM OVC055 02/01 A2932 RMK AO2 $
PAVD 141956Z VRB03KT 10SM FEW001 SCT025 OVC060 02/02 A2933 RMK AO2 SLP955 1951Z WEA: -RA PCPN VRY LGT TWR WND 07004KT T00220022 $
PAVD 141856Z 00000KT 10SM SCT000 SCT008 OVC055 01/01 A2934 RMK AO2 SLP961 1851Z WEA: -RA PRFG PRFG SE-NW PRFG SCT000 TWR WND 00000KT T00110006 $
PAVD 141813Z COR 00000KT 6SM SCT000 SCT008 OVC048 01/01 A2937 RMK AO2 1805Z WEA: -RA BR BR SCT000 TWR WND 00000KT $
PAVD 141804Z 00000KT 3/4SM SCT001 OVC060 01/01 A2938 RMK AO2 VIS 1/4V1 1/2 $
PAVD 141756Z 00000KT 1/2SM BKN000 OVC035 01/01 A2938 RMK AO2 SLP973 1751Z WEA: -RA FG FG BKN000 TWR WND 00000KT 60007 T00110006 10017 20011 56035 $
PAVD 141656Z 00000KT 5SM FEW008 OVC045 01/01 A2941 RMK AO2 SLP984 1651Z WEA: -RA BR TWR WND 00000KT P0001 T00110006 $
PAVD 141556Z 09003KT 4SM FEW008 FEW015 OVC045 01/01 A2945 RMK AO2 SLP996 1551Z WEA: -RA BR TWR WND 06004KT T00110006 $
PAVD 141513Z 00000KT 5SM SCT015 OVC045 01/01 A2947 RMK AO2 1510Z WEA: -RA BR TWR WND 00000KT $
PAVD 141505Z AUTO 00000KT 3SM OVC045 01/01 A2948 RMK AO2 PWINO FZRANO $
PAVD 141456Z AUTO 00000KT 2 1/2SM BKN047 OVC055 01/01 A2948 RMK AO2 VIS 1V5 SLP009 P0001 60006 T00110006 PWINO FZRANO $
PAVD 141454Z AUTO 00000KT 2SM OVC049 01/01 A2949 RMK AO2 VIS 1V5 P0001 PWINO FZRANO $
PAVD 141443Z AUTO 00000KT 3SM OVC050 01/01 A2949 RMK AO2 PWINO FZRANO $
PAVD 141436Z AUTO 00000KT 1 3/4SM OVC050 01/01 A2950 RMK AO2 VIS 1V5 PWINO FZRANO $
PAVD 141425Z AUTO 00000KT 5SM OVC048 01/01 A2951 RMK AO2 PWINO FZRANO $
PAVD 141414Z AUTO 00000KT 2 1/2SM OVC048 01/01 A2951 RMK AO2 VIS 1 1/4V5 PWINO FZRANO $
PAVD 141403Z AUTO 00000KT 1 1/4SM OVC048 01/01 A2953 RMK AO2 PWINO FZRANO $
PAVD 141356Z AUTO 00000KT 3/4SM OVC048 01/01 RMK AO2 SLPNO P0002 T00110006 PWINO FZRANO $
PAVD 141334Z AUTO 00000KT 3/4SM FEW003 BKN041 OVC050 01/01 A2954 RMK AO2 P0001 PWINO FZRANO $
PAVD 141328Z AUTO 00000KT 1 3/4SM SCT003 OVC041 01/01 A2955 RMK AO2 P0001 PWINO FZRANO $
PAVD 141323Z AUTO 00000KT 2SM BKN003 OVC039 01/01 A2955 RMK AO2 P0001 PWINO FZRANO $
PAVD 141317Z AUTO 00000KT 1SM BKN003 BKN027 OVC035 01/01 A2956 RMK AO2 P0001 PWINO FZRANO $
PAVD 141256Z AUTO 00000KT 1/2SM BKN003 OVC027 01/01 A2958 RMK AO2 SLP040 P0003 T00110006 PWINO FZRANO $
PAVD 141254Z AUTO 08003KT 1/2SM BKN003 OVC027 01/01 A2958 RMK AO2 P0002 PWINO FZRANO $
PAVD 141245Z AUTO 00000KT 1/2SM SCT003 BKN024 OVC055 01/01 A2958 RMK AO2 P0002 PWINO FZRANO $
PAVD 141237Z AUTO 00000KT 1/2SM BKN003 BKN024 OVC055 01/01 A2959 RMK AO2 P0002 PWINO FZRANO $
PAVD 141228Z AUTO 1/2SM SCT003 BKN026 OVC055 01/01 RMK AO2 P0002 PWINO FZRANO $
PAVD 141204Z AUTO 00000KT 1/2SM BKN003 OVC026 01/01 A2961 RMK AO2 P0001 PWINO FZRANO $
PAVD 141156Z AUTO 00000KT 3/4SM BKN003 BKN027 OVC045 01/01 RMK AO2 CIG 001V006 SLPNO P0002 60008 7//// T00110006 10017 20006 PWINO FZRANO $
PAVD 141146Z AUTO 00000KT 3/4SM BKN003 BKN036 OVC045 01/01 A2962 RMK AO2 P0002 PWINO FZRANO $
PAVD 141144Z AUTO 00000KT 1SM SCT003 BKN027 OVC047 01/01 A2962 RMK AO2 P0002 PWINO FZRANO $
PAVD 141138Z AUTO 00000KT 1 3/4SM FEW003 OVC045 01/01 A2962 RMK AO2 P0002 PWINO FZRANO $
PAVD 141056Z AUTO 00000KT 6SM OVC034 02/01 RMK AO2 SLPNO P0004 T00170011 PWINO FZRANO $
PAVD 140956Z AUTO 05003KT 10SM FEW014 BKN047 OVC060 02/01 A2968 RMK AO2 SLP075 P0001 T00170011 PWINO FZRANO $
PAVD 140914Z AUTO 05003KT 10SM SCT002 OVC050 01/01 RMK AO2 PWINO FZRANO $
PAVD 140856Z AUTO 06004KT 10SM BKN002 OVC042 01/00 A2971 RMK AO2 CIG 002V007 SLP084 60001 T00060000 400221017 56017 PWINO FZRANO $
PAVD 140851Z AUTO 10SM BKN002 OVC042 01/00 A2971 RMK AO2 400221017 PWINO FZRANO $
PAVD 140843Z AUTO 00000KT 10SM SCT002 BKN042 OVC049 01/00 A2972 RMK AO2 PWINO FZRANO $
PAVD 140816Z AUTO 12003KT 10SM FEW025 BKN055 OVC065 01/00 A2972 RMK AO2 PWINO FZRANO $
PAVD 140803Z AUTO 00000KT 9SM FEW002 BKN027 OVC060 01/00 A2973 RMK AO2 PWINO FZRANO $
PAVD 140756Z AUTO 14003KT 6SM FEW001 SCT025 SCT055 01/01 A2973 RMK AO2 SLP094 T00110006 PWINO FZRANO $
PAVD 140656Z 23003KT 6SM FEW001 SCT025 SCT055 01/01 A2976 RMK AO2 SLP101 0651Z WEA: -RA BR TWR WND 34004KT P0001 T00110006 $
PAVD 140556Z 00000KT 5SM FEW001 SCT025 SCT045 01/01 A2977 RMK AO2 SLP105 0551Z WEA: -RA BR RAB00 TWR WND 00000KT 6//// T00110006 10017 20006 $